createdAt,value
2022-09-01T00:00:03.022Z,9.00
2022-09-01T00:02:33.937Z,8.90
2022-09-01T00:05:02.251Z,8.80
2022-09-01T00:07:30.721Z,8.70
2022-09-01T00:09:59.747Z,8.70
2022-09-01T00:12:28.218Z,8.70
2022-09-01T00:14:55.589Z,8.70
2022-09-01T00:17:22.967Z,8.70
2022-09-01T00:19:50.365Z,8.70
2022-09-01T00:22:18.073Z,8.60
2022-09-01T00:24:45.621Z,8.70
2022-09-01T00:27:13.036Z,8.60
2022-09-01T00:29:43.448Z,8.70
2022-09-01T00:32:12.591Z,8.70
2022-09-01T00:34:40.761Z,8.60
2022-09-01T00:37:08.310Z,8.50
2022-09-01T00:39:35.797Z,8.50
2022-09-01T00:42:03.715Z,8.50
2022-09-01T00:44:31.905Z,8.40
2022-09-01T00:47:00.189Z,8.50
2022-09-01T00:49:45.004Z,8.50
2022-09-01T00:52:21.283Z,8.50
2022-09-01T00:54:53.804Z,8.40
2022-09-01T00:57:21.781Z,8.40
2022-09-01T00:59:57.709Z,8.40
2022-09-01T01:02:26.288Z,8.40
2022-09-01T01:04:56.623Z,8.30
2022-09-01T01:07:24.539Z,8.30
2022-09-01T01:09:52.033Z,8.20
2022-09-01T01:12:20.105Z,8.10
2022-09-01T01:14:52.215Z,8.10
2022-09-01T01:17:22.467Z,8.10
2022-09-01T01:20:16.404Z,8.10
2022-09-01T01:23:10.009Z,8.20
2022-09-01T01:25:59.321Z,8.10
2022-09-01T01:28:35.622Z,8.10
2022-09-01T01:31:11.888Z,8.10
2022-09-01T01:33:44.450Z,8.20
2022-09-01T01:36:19.329Z,8.20
2022-09-01T01:38:49.563Z,8.20
2022-09-01T01:41:21.962Z,8.20
2022-09-01T01:43:51.027Z,8.20
2022-09-01T01:46:20.740Z,8.10
2022-09-01T01:48:52.329Z,8.20
2022-09-01T01:51:24.998Z,8.20
2022-09-01T01:53:52.873Z,8.30
2022-09-01T01:56:25.715Z,8.20
2022-09-01T01:58:55.978Z,8.10
2022-09-01T02:01:30.014Z,8.10
2022-09-01T02:04:00.297Z,8.00
2022-09-01T02:06:29.358Z,8.00
2022-09-01T02:09:03.074Z,8.00
2022-09-01T02:11:33.640Z,8.00
2022-09-01T02:14:01.308Z,7.90
2022-09-01T02:16:32.722Z,7.80
2022-09-01T02:19:03.384Z,7.80
2022-09-01T02:21:30.793Z,7.80
2022-09-01T02:24:02.422Z,7.80
2022-09-01T02:26:43.286Z,7.70
2022-09-01T02:29:18.997Z,7.70
2022-09-01T02:31:49.445Z,7.70
2022-09-01T02:34:18.761Z,7.80
2022-09-01T02:36:49.452Z,7.80
2022-09-01T02:39:28.126Z,7.80
2022-09-01T02:41:56.304Z,7.80
2022-09-01T02:44:27.842Z,7.70
2022-09-01T02:46:55.967Z,7.70
2022-09-01T02:49:29.697Z,7.70
2022-09-01T02:52:01.504Z,7.70
2022-09-01T02:54:32.263Z,7.80
2022-09-01T02:57:00.983Z,7.70
2022-09-01T02:59:30.353Z,7.50
2022-09-01T03:02:01.323Z,7.50
2022-09-01T03:04:35.339Z,7.60
2022-09-01T03:07:06.055Z,7.60
2022-09-01T03:09:35.109Z,7.60
2022-09-01T03:12:03.851Z,7.60
2022-09-01T03:14:31.984Z,7.60
2022-09-01T03:17:00.642Z,7.70
2022-09-01T03:19:32.368Z,7.60
2022-09-01T03:22:00.131Z,7.60
2022-09-01T03:24:30.194Z,7.60
2022-09-01T03:26:58.391Z,7.60
2022-09-01T03:29:26.367Z,7.60
2022-09-01T03:31:55.254Z,7.50
2022-09-01T03:34:23.783Z,7.50
2022-09-01T03:36:54.894Z,7.40
2022-09-01T03:39:27.931Z,7.40
2022-09-01T03:41:58.087Z,7.40
2022-09-01T03:44:25.820Z,7.40
2022-09-01T03:46:53.682Z,7.40
2022-09-01T03:49:27.725Z,7.30
2022-09-01T03:51:57.430Z,7.30
2022-09-01T03:54:30.202Z,7.20
2022-09-01T03:56:59.882Z,7.20
2022-09-01T03:59:29.872Z,7.20
2022-09-01T04:01:59.912Z,7.20
2022-09-01T04:04:27.731Z,7.10
2022-09-01T04:06:55.377Z,7.10
2022-09-01T04:09:22.844Z,7.10
2022-09-01T04:11:51.629Z,7.10
2022-09-01T04:14:20.515Z,7.10
2022-09-01T04:17:08.398Z,7.20
2022-09-01T04:19:39.350Z,7.10
2022-09-01T04:22:08.052Z,7.20
2022-09-01T04:24:45.654Z,7.20
2022-09-01T04:27:17.981Z,7.10
2022-09-01T04:29:46.970Z,7.10
2022-09-01T04:32:15.783Z,7.10
2022-09-01T04:34:46.891Z,7.10
2022-09-01T04:37:20.305Z,7.10
2022-09-01T04:39:56.202Z,7.10
2022-09-01T04:42:28.960Z,7.20
2022-09-01T04:44:57.685Z,7.20
2022-09-01T04:47:36.158Z,7.20
2022-09-01T04:50:13.798Z,7.20
2022-09-01T04:53:12.011Z,7.20
2022-09-01T04:55:44.315Z,7.10
2022-09-01T04:58:17.813Z,7.10
2022-09-01T05:00:48.460Z,7.10
2022-09-01T05:03:24.021Z,7.20
2022-09-01T05:06:03.877Z,7.20
2022-09-01T05:08:35.232Z,7.10
2022-09-01T05:11:07.925Z,7.10
2022-09-01T05:13:49.155Z,7.10
2022-09-01T05:16:24.817Z,7.20
2022-09-01T05:18:57.022Z,7.30
2022-09-01T05:21:32.813Z,7.30
2022-09-01T05:24:01.501Z,7.40
2022-09-01T05:26:33.932Z,7.40
2022-09-01T05:29:04.653Z,7.50
2022-09-01T05:31:37.727Z,7.50
2022-09-01T05:34:09.583Z,7.60
2022-09-01T05:36:41.914Z,7.70
2022-09-01T05:39:13.602Z,7.80
2022-09-01T05:41:41.241Z,7.90
2022-09-01T05:44:11.166Z,8.00
2022-09-01T05:46:39.905Z,8.10
2022-09-01T05:49:13.526Z,8.20
2022-09-01T05:51:45.599Z,8.30
2022-09-01T05:54:16.364Z,8.50
2022-09-01T05:56:44.994Z,8.60
2022-09-01T05:59:25.823Z,8.80
2022-09-01T06:01:58.843Z,8.90
2022-09-01T06:04:26.907Z,9.10
2022-09-01T06:07:06.695Z,9.20
2022-09-01T06:09:39.837Z,9.40
2022-09-01T06:12:09.193Z,9.50
2022-09-01T06:14:36.663Z,9.70
2022-09-01T06:17:04.287Z,9.80
2022-09-01T06:19:37.158Z,10.10
2022-09-01T06:22:05.488Z,10.30
2022-09-01T06:24:33.460Z,10.40
2022-09-01T06:27:01.438Z,10.60
2022-09-01T06:29:31.220Z,10.80
2022-09-01T06:31:59.820Z,11.00
2022-09-01T06:34:28.099Z,11.30
2022-09-01T06:36:55.487Z,11.50
2022-09-01T06:39:23.957Z,11.80
2022-09-01T06:41:54.764Z,12.10
2022-09-01T06:44:27.207Z,12.40
2022-09-01T06:47:01.146Z,12.90
2022-09-01T06:49:34.751Z,13.60
2022-09-01T06:52:05.675Z,14.50
2022-09-01T06:54:34.268Z,15.80
2022-09-01T06:59:54.032Z,18.20
2022-09-01T07:02:26.725Z,19.20
2022-09-01T07:08:10.964Z,20.70
2022-09-01T07:16:51.810Z,22.20
2022-09-01T07:19:21.784Z,22.50
2022-09-01T07:22:35.318Z,22.90
2022-09-01T07:24:48.353Z,23.20
2022-09-01T07:27:50.522Z,23.40
2022-09-01T07:30:23.988Z,23.90
2022-09-01T07:32:53.869Z,24.00
2022-09-01T07:35:22.539Z,24.20
2022-09-01T07:43:52.946Z,25.50
2022-09-01T07:46:39.738Z,25.90
2022-09-01T07:52:03.779Z,27.00
2022-09-01T07:54:33.923Z,27.20
2022-09-01T07:57:01.818Z,28.00
2022-09-01T07:59:35.671Z,28.30
2022-09-01T08:02:14.293Z,28.60
2022-09-01T08:04:43.601Z,28.80
2022-09-01T08:07:15.503Z,29.00
2022-09-01T08:09:44.361Z,28.90
2022-09-01T08:12:13.655Z,29.20
2022-09-01T08:15:12.718Z,29.70
2022-09-01T08:17:56.767Z,29.90
2022-09-01T08:20:26.297Z,30.40
2022-09-01T08:23:03.404Z,30.70
2022-09-01T08:25:37.081Z,30.60
2022-09-01T08:28:06.067Z,31.00
2022-09-01T08:30:35.893Z,31.40
2022-09-01T08:33:11.177Z,31.50
2022-09-01T08:35:45.873Z,31.50
2022-09-01T08:38:13.622Z,31.50
2022-09-01T08:40:43.424Z,31.70
2022-09-01T08:43:29.481Z,32.60
2022-09-01T08:46:31.123Z,32.60
2022-09-01T08:53:09.009Z,32.70
2022-09-01T08:55:43.293Z,32.90
2022-09-01T08:58:16.638Z,34.10
2022-09-01T09:00:57.893Z,34.40
2022-09-01T09:04:04.052Z,35.50
2022-09-01T09:07:02.874Z,35.20
2022-09-01T09:09:41.328Z,35.70
2022-09-01T09:12:56.766Z,36.10
2022-09-01T09:16:09.399Z,35.70
2022-09-01T09:18:59.734Z,36.00
2022-09-01T09:21:35.491Z,35.40
2022-09-01T09:24:11.492Z,36.10
2022-09-01T09:26:42.951Z,36.50
2022-09-01T09:29:11.544Z,36.40
2022-09-01T09:31:45.958Z,36.90
2022-09-01T09:34:37.504Z,37.50
2022-09-01T09:37:20.029Z,38.40
2022-09-01T09:40:08.701Z,38.70
2022-09-01T09:42:41.716Z,39.10
2022-09-01T09:45:26.646Z,39.40
2022-09-01T09:47:56.394Z,39.10
2022-09-01T09:50:49.253Z,39.30
2022-09-01T09:53:34.640Z,39.90
2022-09-01T09:56:05.189Z,40.00
2022-09-01T09:58:39.468Z,39.90
2022-09-01T10:01:15.225Z,39.60
2022-09-01T10:03:48.993Z,39.90
2022-09-01T10:06:41.954Z,41.10
2022-09-01T10:09:17.763Z,41.10
2022-09-01T10:11:51.447Z,41.10
2022-09-01T10:14:52.726Z,40.10
2022-09-01T10:17:27.971Z,40.20
2022-09-01T10:20:05.143Z,40.60
2022-09-01T10:22:34.609Z,41.10
2022-09-01T10:25:03.343Z,42.50
2022-09-01T10:27:35.483Z,43.50
2022-09-01T10:30:20.077Z,43.10
2022-09-01T10:32:55.796Z,43.70
2022-09-01T10:35:39.819Z,44.30
2022-09-01T10:38:12.130Z,45.10
2022-09-01T10:40:48.986Z,44.80
2022-09-01T10:43:38.294Z,44.80
2022-09-01T10:46:39.067Z,43.30
2022-09-01T10:49:25.739Z,43.10
2022-09-01T10:51:57.071Z,43.90
2022-09-01T10:54:50.851Z,43.90
2022-09-01T10:57:34.489Z,44.10
2022-09-01T11:00:36.194Z,43.30
2022-09-01T11:06:14.397Z,42.70
2022-09-01T11:09:07.771Z,43.00
2022-09-01T11:11:43.385Z,44.00
2022-09-01T11:14:20.851Z,43.80
2022-09-01T11:17:25.564Z,44.00
2022-09-01T11:20:22.247Z,44.40
2022-09-01T11:23:11.625Z,44.30
2022-09-01T11:25:48.505Z,45.40
2022-09-01T11:28:38.052Z,46.60
2022-09-01T11:31:05.978Z,47.30
2022-09-01T11:34:11.353Z,47.50
2022-09-01T11:36:48.246Z,47.70
2022-09-01T11:39:46.345Z,45.30
2022-09-01T11:42:26.768Z,44.60
2022-09-01T11:45:22.129Z,41.60
2022-09-01T11:47:55.973Z,39.50
2022-09-01T11:50:28.207Z,42.20
2022-09-01T11:53:05.505Z,40.50
2022-09-01T11:55:41.660Z,39.70
2022-09-01T11:58:28.882Z,42.20
2022-09-01T12:01:11.391Z,43.90
2022-09-01T12:03:39.046Z,44.70
2022-09-01T12:06:10.832Z,44.10
2022-09-01T12:08:43.203Z,42.20
2022-09-01T12:11:18.438Z,38.90
2022-09-01T12:14:01.717Z,36.90
2022-09-01T12:16:35.652Z,38.40
2022-09-01T12:19:06.265Z,41.40
2022-09-01T12:21:38.857Z,42.50
2022-09-01T12:24:19.933Z,43.90
2022-09-01T12:26:50.943Z,41.00
2022-09-01T12:29:23.287Z,38.70
2022-09-01T12:31:53.080Z,36.20
2022-09-01T12:34:59.058Z,34.90
2022-09-01T12:37:27.680Z,34.10
2022-09-01T12:39:57.635Z,33.50
2022-09-01T12:42:32.437Z,35.30
2022-09-01T12:45:10.739Z,36.50
2022-09-01T12:47:48.019Z,34.50
2022-09-01T12:50:16.740Z,33.60
2022-09-01T12:52:52.636Z,33.00
2022-09-01T12:58:25.091Z,30.40
2022-09-01T13:01:05.275Z,30.00
2022-09-01T13:03:34.571Z,30.10
2022-09-01T13:06:03.667Z,31.10
2022-09-01T13:08:34.171Z,32.40
2022-09-01T13:11:08.110Z,35.60
2022-09-01T13:13:35.764Z,37.70
2022-09-01T13:16:10.535Z,39.00
2022-09-01T13:19:10.915Z,40.50
2022-09-01T13:24:11.036Z,39.50
2022-09-01T13:26:38.419Z,40.30
2022-09-01T13:29:06.028Z,39.70
2022-09-01T13:31:35.774Z,38.90
2022-09-01T13:34:21.732Z,39.90
2022-09-01T13:36:52.552Z,40.40
2022-09-01T13:39:21.415Z,40.50
2022-09-01T13:41:49.667Z,39.50
2022-09-01T13:44:18.716Z,38.30
2022-09-01T13:49:44.956Z,39.10
2022-09-01T13:52:22.747Z,39.90
2022-09-01T13:54:52.149Z,40.70
2022-09-01T13:57:20.117Z,40.20
2022-09-01T13:59:49.578Z,41.00
2022-09-01T14:02:17.053Z,39.40
2022-09-01T14:04:45.852Z,40.10
2022-09-01T14:07:16.083Z,40.20
2022-09-01T14:09:43.518Z,37.60
2022-09-01T14:12:10.979Z,35.40
2022-09-01T14:17:26.419Z,32.80
2022-09-01T14:19:55.323Z,31.50
2022-09-01T14:22:23.183Z,30.50
2022-09-01T14:24:50.531Z,29.70
2022-09-01T14:27:18.667Z,29.70
2022-09-01T14:29:50.637Z,31.80
2022-09-01T14:32:26.813Z,33.40
2022-09-01T14:34:55.990Z,33.90
2022-09-01T14:37:24.314Z,34.50
2022-09-01T14:39:54.370Z,34.90
2022-09-01T14:42:23.975Z,34.60
2022-09-01T14:45:18.847Z,34.40
2022-09-01T14:47:48.370Z,33.30
2022-09-01T14:50:22.749Z,33.20
2022-09-01T14:52:56.231Z,33.40
2022-09-01T14:55:25.561Z,33.00
2022-09-01T14:57:54.930Z,33.10
2022-09-01T15:00:27.758Z,34.00
2022-09-01T15:02:56.422Z,34.80
2022-09-01T15:05:24.897Z,35.00
2022-09-01T15:07:53.547Z,34.90
2022-09-01T15:10:25.688Z,34.10
2022-09-01T15:12:55.702Z,33.70
2022-09-01T15:15:23.526Z,32.80
2022-09-01T15:18:16.184Z,31.70
2022-09-01T15:20:46.670Z,30.90
2022-09-01T15:23:20.628Z,30.40
2022-09-01T15:25:52.018Z,30.00
2022-09-01T15:28:20.773Z,28.90
2022-09-01T15:30:48.310Z,27.70
2022-09-01T15:33:16.321Z,27.00
2022-09-01T15:35:48.414Z,26.40
2022-09-01T15:38:18.079Z,26.00
2022-09-01T15:40:57.085Z,25.50
2022-09-01T15:43:30.516Z,25.20
2022-09-01T15:45:58.694Z,25.20
2022-09-01T15:48:28.289Z,25.00
2022-09-01T15:51:23.539Z,24.90
2022-09-01T15:53:53.319Z,24.80
2022-09-01T15:56:20.967Z,24.90
2022-09-01T15:59:01.074Z,25.30
2022-09-01T16:01:31.946Z,25.70
2022-09-01T16:04:01.132Z,25.90
2022-09-01T16:06:29.102Z,26.00
2022-09-01T16:08:57.336Z,26.70
2022-09-01T16:11:25.917Z,27.10
2022-09-01T16:13:54.157Z,27.60
2022-09-01T16:16:56.692Z,27.80
2022-09-01T16:19:53.991Z,27.80
2022-09-01T16:22:23.451Z,27.50
2022-09-01T16:24:57.787Z,26.90
2022-09-01T16:27:34.057Z,26.70
2022-09-01T16:30:14.494Z,26.40
2022-09-01T16:32:46.142Z,25.90
2022-09-01T16:35:16.857Z,25.60
2022-09-01T16:38:12.547Z,25.40
2022-09-01T16:41:15.905Z,25.10
2022-09-01T16:44:16.083Z,24.90
2022-09-01T16:46:58.816Z,24.70
2022-09-01T16:49:37.322Z,24.70
2022-09-01T16:52:26.507Z,24.60
2022-09-01T16:55:29.545Z,24.30
2022-09-01T16:58:09.101Z,24.20
2022-09-01T17:01:03.309Z,24.20
2022-09-01T17:03:43.223Z,23.90
2022-09-01T17:06:31.790Z,24.10
2022-09-01T17:09:09.240Z,24.00
2022-09-01T17:11:49.122Z,24.00
2022-09-01T17:14:28.006Z,23.90
2022-09-01T17:17:12.351Z,23.60
2022-09-01T17:19:41.120Z,23.20
2022-09-01T17:22:12.603Z,23.00
2022-09-01T17:24:46.250Z,22.90
2022-09-01T17:27:18.468Z,22.70
2022-09-01T17:29:52.069Z,22.40
2022-09-01T17:32:34.654Z,22.10
2022-09-01T17:35:37.741Z,22.00
2022-09-01T17:38:54.105Z,21.80
2022-09-01T17:41:34.234Z,21.60
2022-09-01T17:44:35.651Z,21.20
2022-09-01T17:47:17.622Z,21.10
2022-09-01T17:50:15.179Z,20.80
2022-09-01T17:52:56.285Z,20.50
2022-09-01T17:55:43.406Z,20.30
2022-09-01T17:58:38.914Z,20.00
2022-09-01T18:01:26.489Z,19.80
2022-09-01T18:04:38.395Z,19.60
2022-09-01T18:07:23.459Z,19.40
2022-09-01T18:09:54.490Z,19.20
2022-09-01T18:12:29.215Z,18.90
2022-09-01T18:15:09.842Z,18.60
2022-09-01T18:18:10.423Z,18.40
2022-09-01T18:20:43.648Z,18.30
2022-09-01T18:23:13.755Z,18.00
2022-09-01T18:26:05.690Z,17.80
2022-09-01T18:28:33.165Z,17.60
2022-09-01T18:31:22.617Z,17.50
2022-09-01T18:34:02.306Z,17.30
2022-09-01T18:36:44.773Z,17.10
2022-09-01T18:39:28.478Z,17.00
2022-09-01T18:42:16.964Z,16.90
2022-09-01T18:45:07.414Z,16.70
2022-09-01T18:47:49.372Z,16.70
2022-09-01T18:51:04.217Z,16.50
2022-09-01T18:53:59.170Z,16.50
2022-09-01T18:56:47.058Z,16.40
2022-09-01T18:59:17.586Z,16.20
2022-09-01T19:01:59.674Z,16.10
2022-09-01T19:04:42.287Z,16.00
2022-09-01T19:07:36.697Z,15.90
2022-09-01T19:10:19.382Z,15.70
2022-09-01T19:13:12.067Z,15.50
2022-09-01T19:15:59.962Z,15.40
2022-09-01T19:18:57.307Z,15.40
2022-09-01T19:21:32.201Z,15.20
2022-09-01T19:24:10.207Z,15.10
2022-09-01T19:26:54.719Z,15.10
2022-09-01T19:29:35.163Z,15.00
2022-09-01T19:32:08.567Z,14.80
2022-09-01T19:34:41.381Z,14.80
2022-09-01T19:37:10.809Z,14.70
2022-09-01T19:39:43.768Z,14.60
2022-09-01T19:42:41.379Z,14.50
2022-09-01T19:45:27.987Z,14.30
2022-09-01T19:48:08.349Z,14.10
2022-09-01T19:50:47.412Z,13.90
2022-09-01T19:53:45.173Z,13.90
2022-09-01T19:56:57.383Z,13.80
2022-09-01T19:59:43.715Z,13.80
2022-09-01T20:02:21.186Z,13.80
2022-09-01T20:05:00.506Z,13.80
2022-09-01T20:07:44.563Z,13.70
2022-09-01T20:10:37.025Z,13.70
2022-09-01T20:13:30.079Z,13.60
2022-09-01T20:16:24.118Z,13.50
2022-09-01T20:19:03.931Z,13.40
2022-09-01T20:21:32.918Z,13.30
2022-09-01T20:24:21.842Z,13.20
2022-09-01T20:27:17.759Z,13.10
2022-09-01T20:29:45.037Z,13.00
2022-09-01T20:32:14.511Z,12.90
2022-09-01T20:34:48.003Z,13.00
2022-09-01T20:37:23.969Z,12.90
2022-09-01T20:40:05.050Z,12.70
2022-09-01T20:42:32.498Z,12.70
2022-09-01T20:45:14.905Z,12.60
2022-09-01T20:47:50.406Z,12.60
2022-09-01T20:50:19.603Z,12.40
2022-09-01T20:53:03.729Z,12.40
2022-09-01T20:55:54.511Z,12.30
2022-09-01T20:58:33.492Z,12.10
2022-09-01T21:01:17.860Z,11.90
2022-09-01T21:04:09.579Z,11.80
2022-09-01T21:07:00.291Z,11.70
2022-09-01T21:09:54.032Z,11.70
2022-09-01T21:12:30.796Z,11.60
2022-09-01T21:15:13.332Z,11.50
2022-09-01T21:17:49.805Z,11.40
2022-09-01T21:20:49.954Z,11.30
2022-09-01T21:23:20.113Z,11.20
2022-09-01T21:25:48.598Z,11.10
2022-09-01T21:28:20.240Z,11.00
2022-09-01T21:30:54.837Z,11.00
2022-09-01T21:33:23.490Z,10.90
2022-09-01T21:35:52.967Z,10.80
2022-09-01T21:38:20.526Z,10.70
2022-09-01T21:40:50.829Z,10.60
2022-09-01T21:43:22.315Z,10.60
2022-09-01T21:45:50.177Z,10.50
2022-09-01T21:48:18.561Z,10.40
2022-09-01T21:50:47.563Z,10.30
2022-09-01T21:53:15.330Z,10.30
2022-09-01T21:55:43.347Z,10.30
2022-09-01T21:58:10.912Z,10.30
2022-09-01T22:00:39.668Z,10.30
2022-09-01T22:03:08.023Z,10.40
2022-09-01T22:05:41.141Z,10.30
2022-09-01T22:08:13.403Z,10.20
2022-09-01T22:10:52.041Z,10.20
2022-09-01T22:13:22.630Z,10.10
2022-09-01T22:15:53.609Z,10.10
2022-09-01T22:18:21.920Z,10.10
2022-09-01T22:20:50.114Z,10.00
2022-09-01T22:23:17.561Z,10.00
2022-09-01T22:25:46.616Z,10.00
2022-09-01T22:28:14.463Z,9.90
2022-09-01T22:30:47.556Z,9.90
2022-09-01T22:33:15.909Z,10.00
2022-09-01T22:35:50.422Z,10.00
2022-09-01T22:38:18.643Z,10.00
2022-09-01T22:40:56.321Z,10.00
2022-09-01T22:43:24.864Z,10.00
2022-09-01T22:45:52.972Z,10.10
2022-09-01T22:48:22.754Z,10.10
2022-09-01T22:50:51.750Z,10.00
2022-09-01T22:53:21.189Z,10.00
2022-09-01T22:55:52.009Z,10.00
2022-09-01T22:58:19.848Z,10.00
2022-09-01T23:00:53.387Z,10.00
2022-09-01T23:03:22.260Z,9.90
2022-09-01T23:05:50.398Z,10.00
2022-09-01T23:08:17.967Z,9.90
2022-09-01T23:10:45.556Z,9.90
2022-09-01T23:13:13.518Z,9.90
2022-09-01T23:15:43.435Z,9.90
2022-09-01T23:18:11.274Z,9.90
2022-09-01T23:20:38.708Z,9.80
2022-09-01T23:23:06.046Z,9.90
2022-09-01T23:25:33.400Z,9.90
2022-09-01T23:28:01.599Z,10.00
2022-09-01T23:30:29.463Z,10.00
2022-09-01T23:32:57.819Z,9.90
2022-09-01T23:35:26.895Z,9.90
2022-09-01T23:37:55.437Z,10.00
2022-09-01T23:40:23.116Z,9.90
2022-09-01T23:42:50.485Z,9.80
2022-09-01T23:45:18.012Z,9.80
2022-09-01T23:47:45.368Z,9.70
2022-09-01T23:50:12.866Z,9.60
2022-09-01T23:52:40.343Z,9.50
2022-09-01T23:55:08.295Z,9.40
2022-09-01T23:57:35.682Z,9.30
